»·PEaware :: SWA2505 KSFO-KSAN

SWA2505 :: KSFO-KSAN

FLIGHT INFORMATION

Flight Status: Arrived
Operator:
Southwest Airlines
More flights by this operator :: More flights under this callsign
Pilot: Kyle M. (9350)
Aircraft: BOEING 737-800
(B738)
More flights by this aircraft type
Origin: KSFO San Francisco Intl
United States
Destination: KSAN San Diego Intl-Lindbergh
United States
More flights between these airports :: More routes between these airports
Route: +OFFSH1 MCKEY LAX COMIX1
File this flight plan on PilotEdge
Remarks: CptCanada - YouTube livestreams!
Altitude:
(Current/Filed)
39,000ft
Speed:
(Current/Filed)
450kts
Departed: 07-Apr-18 03:15 PM
Arrived: 07-Apr-18 04:32 PM
Distance/Time
Traveled:
388nm/1:17
Distance/Time
To Go:
Arrived

Flight Plot

Page will automatically refresh every two minutes.

Flight plan parsing failed; only flown route is shown


Map Options




Map Legend


Flown Route
Filed Route
Departure Airport
Arrival Airport
Navaid (VOR, NDB)
Fix

Horizontal Profiles

Position Reports

Time Latitude Longitude Heading Altitude Ground
Speed
07-Apr-18 14:58 37.612636 -122.384669 6 21ft 0kts
07-Apr-18 14:59 37.612636 -122.384669 6 21ft 0kts
07-Apr-18 15:00 37.612636 -122.384669 6 21ft 0kts
07-Apr-18 15:01 37.612636 -122.384669 6 21ft 0kts
07-Apr-18 15:02 37.612636 -122.384669 6 21ft 0kts
07-Apr-18 15:03 37.612636 -122.384669 6 21ft 0kts
07-Apr-18 15:04 37.612636 -122.384669 6 21ft 0kts
07-Apr-18 15:05 37.612636 -122.384669 6 21ft 0kts
07-Apr-18 15:06 37.612636 -122.384669 6 21ft 0kts
07-Apr-18 15:07 37.612350 -122.384708 6 21ft 2kts
07-Apr-18 15:08 37.611755 -122.384791 6 21ft 2kts
07-Apr-18 15:09 37.611271 -122.385001 80 21ft 1kts
07-Apr-18 15:10 37.611255 -122.385089 73 21ft 0kts
07-Apr-18 15:11 37.611255 -122.385089 73 21ft 0kts
07-Apr-18 15:12 37.611355 -122.383984 108 21ft 4kts
07-Apr-18 15:13 37.608452 -122.383794 116 21ft 16kts
07-Apr-18 15:14 37.626488 -122.370583 23 369ft 182kts
07-Apr-18 15:15 37.680303 -122.361735 341 3104ft 235kts
07-Apr-18 15:16 37.743910 -122.382404 293 6682ft 258kts
07-Apr-18 15:17 37.715526 -122.460781 234 10788ft 263kts
07-Apr-18 15:18 37.666755 -122.534703 234 14377ft 281kts
07-Apr-18 15:19 37.598113 -122.572139 168 18185ft 352kts
07-Apr-18 15:20 37.514094 -122.512944 163 21310ft 374kts
07-Apr-18 15:21 37.422986 -122.446928 164 24290ft 387kts
07-Apr-18 15:22 37.328940 -122.379011 165 27004ft 399kts
07-Apr-18 15:23 37.232094 -122.309277 165 29499ft 409kts
07-Apr-18 15:24 37.141601 -122.244047 166 32167ft 401kts
07-Apr-18 15:25 37.047043 -122.176069 166 34689ft 391kts
07-Apr-18 15:26 36.954695 -122.109955 166 36753ft 385kts
07-Apr-18 15:27 36.865021 -122.046027 166 38414ft 384kts
07-Apr-18 15:28 36.771466 -121.979816 166 39118ft 401kts
07-Apr-18 15:29 36.671064 -121.909178 165 39110ft 427kts
07-Apr-18 15:30 36.566417 -121.835499 164 39126ft 444kts
07-Apr-18 15:31 36.459427 -121.760120 164 39108ft 446kts
07-Apr-18 15:32 36.352109 -121.684711 164 39106ft 445kts
07-Apr-18 15:33 36.244826 -121.609571 164 39106ft 445kts
07-Apr-18 15:34 36.136984 -121.534277 164 39106ft 446kts
07-Apr-18 15:35 36.031323 -121.460768 164 39106ft 448kts
07-Apr-18 15:36 35.923806 -121.386168 164 39099ft 448kts
07-Apr-18 15:37 35.818999 -121.313704 165 39074ft 446kts
07-Apr-18 15:38 35.728956 -121.251711 164 39073ft 446kts
07-Apr-18 15:39 35.620876 -121.177512 164 39073ft 449kts
07-Apr-18 15:40 35.512332 -121.103141 164 39073ft 449kts
07-Apr-18 15:41 35.423495 -120.983287 137 39074ft 501kts
07-Apr-18 15:42 35.333478 -120.827171 138 39103ft 498kts
07-Apr-18 15:43 35.252520 -120.690869 138 39103ft 500kts
07-Apr-18 15:44 35.184817 -120.576622 138 39106ft 501kts
07-Apr-18 15:45 35.103266 -120.438764 137 39108ft 501kts
07-Apr-18 15:46 35.027166 -120.309993 135 39092ft 501kts
07-Apr-18 15:47 34.946725 -120.173328 134 39094ft 496kts
07-Apr-18 15:48 34.867815 -120.039181 134 39104ft 497kts
07-Apr-18 15:49 34.787846 -119.902959 133 39053ft 497kts
07-Apr-18 15:50 34.707965 -119.766639 133 39035ft 497kts
07-Apr-18 15:51 34.627790 -119.629664 130 38976ft 498kts
07-Apr-18 15:52 34.548427 -119.493577 132 38975ft 497kts
07-Apr-18 15:53 34.470099 -119.359159 132 38993ft 496kts
07-Apr-18 15:54 34.406113 -119.249097 132 38990ft 496kts
07-Apr-18 15:55 34.327215 -119.113214 132 38991ft 495kts
07-Apr-18 15:56 34.248701 -118.977777 131 38993ft 496kts
07-Apr-18 15:57 34.170077 -118.841893 131 38994ft 495kts
07-Apr-18 15:58 34.091974 -118.706691 130 38994ft 493kts
07-Apr-18 15:59 34.018327 -118.578798 131 37826ft 461kts
07-Apr-18 16:00 33.946582 -118.454285 130 35596ft 452kts
07-Apr-18 16:01 33.868865 -118.346310 140 33481ft 451kts
07-Apr-18 16:02 33.784961 -118.239134 139 31271ft 454kts
07-Apr-18 16:03 33.701282 -118.129680 139 29048ft 439kts
07-Apr-18 16:04 33.620918 -118.024392 139 26914ft 423kts
07-Apr-18 16:05 33.543517 -117.923497 140 24878ft 408kts
07-Apr-18 16:06 33.463924 -117.831402 142 22881ft 396kts
07-Apr-18 16:07 33.387398 -117.740114 140 20942ft 388kts
07-Apr-18 16:08 33.312882 -117.649503 140 19036ft 378kts
07-Apr-18 16:09 33.238053 -117.565427 151 17199ft 363kts
07-Apr-18 16:10 33.156692 -117.498672 150 15368ft 354kts
07-Apr-18 16:11 33.078099 -117.433458 150 13710ft 347kts
07-Apr-18 16:12 33.000315 -117.368577 149 12085ft 338kts
07-Apr-18 16:13 32.932722 -117.311956 150 10664ft 316kts
07-Apr-18 16:14 32.865179 -117.255727 149 9255ft 301kts
07-Apr-18 16:15 32.808885 -117.188615 103 8002ft 288kts
07-Apr-18 16:16 32.793724 -117.100159 101 6993ft 270kts
07-Apr-18 16:17 32.779285 -117.014130 101 5798ft 262kts
07-Apr-18 16:18 32.765857 -116.934706 101 5079ft 242kts
07-Apr-18 16:19 32.753207 -116.859096 104 4962ft 230kts
07-Apr-18 16:20 32.700538 -116.847281 200 4969ft 224kts
07-Apr-18 16:21 32.642760 -116.871777 201 4966ft 219kts
07-Apr-18 16:22 32.587340 -116.873555 120 5001ft 224kts
07-Apr-18 16:23 32.619676 -116.839456 316 4986ft 216kts
07-Apr-18 16:24 32.652696 -116.898115 301 4966ft 212kts
07-Apr-18 16:25 32.676821 -116.957486 286 4561ft 196kts
07-Apr-18 16:26 32.690021 -117.010886 285 3843ft 141kts
07-Apr-18 16:27 32.700240 -117.052737 286 2566ft 122kts
07-Apr-18 16:28 32.709154 -117.091265 285 1612ft 120kts
07-Apr-18 16:29 32.718752 -117.129221 288 1192ft 122kts
07-Apr-18 16:30 32.728205 -117.167663 286 324ft 119kts
07-Apr-18 16:31 32.734416 -117.194194 258 25ft 21kts
07-Apr-18 16:32 32.733436 -117.195970 199 25ft 3kts

Navigation Log

Ident Type
Flight plan parsing failed, navigation log unavailable